Time;durP1;ratioP1;P1;durP2;ratioP2;P2;SDS_P1;SDS_P2;PMS_P1;PMS_P2;Temp;Humidity;BMP_temperature;BMP_pressure;BME280_temperature;BME280_humidity;BME280_pressure;Samples;Min_cycle;Max_cycle;Signal;HPM_P1;HPM_P2
2022/06/11 00:00:56;;;;;;;20.33;3.83;;;16.00;99.90;;;;;;5050909;28;20025;-66
2022/06/11 00:03:22;;;;;;;14.05;3.53;;;16.00;99.90;;;;;;5034045;28;20037;-65
2022/06/11 00:05:49;;;;;;;13.10;3.10;;;16.00;99.90;;;;;;5050766;28;20031;-64
2022/06/11 00:08:15;;;;;;;20.67;3.83;;;16.00;99.90;;;;;;5060371;28;20054;-66
2022/06/11 00:10:41;;;;;;;20.92;3.83;;;15.90;99.90;;;;;;5053783;28;20017;-64
2022/06/11 00:13:07;;;;;;;19.75;4.30;;;15.90;99.90;;;;;;5052552;28;20069;-65
2022/06/11 00:15:33;;;;;;;16.48;3.25;;;15.90;99.90;;;;;;5039451;28;20047;-65
2022/06/11 00:17:59;;;;;;;18.92;3.92;;;15.90;99.90;;;;;;5034923;28;20060;-64
2022/06/11 00:20:28;;;;;;;16.23;3.40;;;15.80;99.90;;;;;;5035045;28;20494;-64
2022/06/11 00:22:53;;;;;;;18.85;3.42;;;15.80;99.90;;;;;;5050188;28;20043;-65
2022/06/11 00:25:20;;;;;;;11.73;2.78;;;15.80;99.90;;;;;;5053361;28;20033;-64
2022/06/11 00:27:47;;;;;;;13.00;2.83;;;15.80;99.90;;;;;;5054167;28;20089;-64
2022/06/11 00:30:14;;;;;;;14.82;3.78;;;15.80;99.90;;;;;;5041643;28;20071;-64
2022/06/11 00:32:40;;;;;;;15.30;3.05;;;15.80;99.90;;;;;;5035044;28;20180;-67
2022/06/11 00:35:07;;;;;;;18.00;3.40;;;15.70;99.90;;;;;;5038943;28;20057;-63
2022/06/11 00:37:33;;;;;;;18.33;3.22;;;15.70;99.90;;;;;;5054470;28;20028;-63
2022/06/11 00:39:59;;;;;;;16.63;3.13;;;15.70;99.90;;;;;;5046088;28;20018;-65
2022/06/11 00:42:29;;;;;;;19.40;2.90;;;15.70;99.90;;;;;;5038821;28;20033;-63
2022/06/11 00:45:43;;;;;;;14.93;3.80;;;15.70;99.90;;;;;;5050889;28;20020;-64
2022/06/11 00:48:09;;;;;;;14.18;2.75;;;15.60;99.90;;;;;;4989097;28;20222;-63
2022/06/11 00:50:41;;;;;;;18.13;2.85;;;15.70;99.90;;;;;;5042269;28;20144;-65
2022/06/11 00:53:18;;;;;;;14.23;3.40;;;15.70;99.90;;;;;;5054143;28;20055;-64
2022/06/11 00:55:46;;;;;;;19.20;2.75;;;15.70;99.90;;;;;;5054177;28;20029;-64
2022/06/11 00:58:22;;;;;;;12.45;2.72;;;15.70;99.90;;;;;;5052738;28;20021;-63
2022/06/11 01:00:53;;;;;;;13.27;3.03;;;15.60;99.90;;;;;;5053909;28;20362;-63
2022/06/11 01:03:24;;;;;;;18.83;3.75;;;15.70;99.90;;;;;;5033796;28;20044;-68
2022/06/11 01:06:04;;;;;;;15.93;3.90;;;15.70;99.90;;;;;;5034114;28;20135;-65
2022/06/11 01:08:52;;;;;;;20.88;4.18;;;15.60;99.90;;;;;;5033953;28;20067;-65
2022/06/11 01:11:32;;;;;;;12.38;2.90;;;15.60;99.90;;;;;;5057150;28;20035;-64
2022/06/11 01:14:24;;;;;;;16.65;3.10;;;15.60;99.90;;;;;;5053797;28;20025;-63
2022/06/11 01:17:10;;;;;;;17.15;3.53;;;15.50;99.90;;;;;;5053496;28;20028;-64
2022/06/11 01:20:14;;;;;;;26.58;3.40;;;15.50;99.90;;;;;;5053004;28;20044;-67
2022/06/11 01:22:58;;;;;;;14.82;2.63;;;15.50;99.90;;;;;;5044451;28;20099;-65
2022/06/11 01:25:41;;;;;;;18.05;3.42;;;15.40;99.90;;;;;;5042850;28;20024;-63
2022/06/11 01:28:18;;;;;;;19.50;3.20;;;15.40;99.90;;;;;;5053192;28;20095;-65
2022/06/11 01:30:50;;;;;;;14.85;3.70;;;15.30;99.90;;;;;;5052698;28;20051;-68
2022/06/11 01:33:16;;;;;;;19.15;3.80;;;15.30;99.90;;;;;;5052912;28;20110;-64
2022/06/11 01:36:07;;;;;;;17.67;4.93;;;15.40;99.90;;;;;;5052547;28;20045;-63
2022/06/11 01:38:45;;;;;;;15.48;3.53;;;15.30;99.90;;;;;;5053048;28;20580;-63
2022/06/11 01:41:21;;;;;;;19.83;3.28;;;15.30;99.90;;;;;;5051599;28;20060;-63
2022/06/11 01:43:49;;;;;;;17.98;3.20;;;15.20;99.90;;;;;;5051751;28;20087;-64
2022/06/11 01:46:28;;;;;;;16.98;2.97;;;15.20;99.90;;;;;;5053158;28;20185;-64
2022/06/11 01:49:02;;;;;;;13.23;2.80;;;15.30;99.90;;;;;;5052653;28;20040;-63
2022/06/11 01:51:56;;;;;;;13.38;2.92;;;15.20;99.90;;;;;;5051874;28;20055;-67
2022/06/11 01:54:49;;;;;;;19.98;3.65;;;15.20;99.90;;;;;;5051365;28;20048;-66
2022/06/11 01:57:32;;;;;;;21.75;3.70;;;15.20;99.90;;;;;;5043903;28;20033;-65
2022/06/11 02:00:28;;;;;;;16.40;3.20;;;15.10;99.90;;;;;;5039265;28;20478;-63
2022/06/11 02:03:09;;;;;;;22.48;4.28;;;15.20;99.90;;;;;;5042980;28;20030;-63
2022/06/11 02:06:00;;;;;;;24.83;3.90;;;15.10;99.90;;;;;;5032483;28;20025;-64
2022/06/11 02:08:26;;;;;;;19.35;3.33;;;15.10;99.90;;;;;;5039550;28;20278;-64
2022/06/11 02:11:22;;;;;;;21.35;5.15;;;15.10;99.90;;;;;;5043358;28;20534;-65
2022/06/11 02:14:02;;;;;;;20.60;4.35;;;15.10;99.90;;;;;;5046833;28;20478;-64
2022/06/11 02:16:36;;;;;;;19.55;3.85;;;15.10;99.90;;;;;;5050688;28;20134;-65
2022/06/11 02:19:12;;;;;;;17.60;3.45;;;15.10;99.90;;;;;;5052147;28;20009;-64
2022/06/11 02:21:49;;;;;;;14.70;3.60;;;15.00;99.90;;;;;;5052403;28;20021;-63
2022/06/11 02:24:19;;;;;;;18.85;3.20;;;15.00;99.90;;;;;;5045791;28;20347;-64
2022/06/11 02:26:52;;;;;;;29.38;4.60;;;15.00;99.90;;;;;;5049897;28;20447;-64
2022/06/11 02:29:20;;;;;;;14.95;3.72;;;15.00;99.90;;;;;;5050381;28;20108;-63
2022/06/11 02:31:51;;;;;;;23.23;3.88;;;15.00;99.90;;;;;;5051128;28;20052;-63
2022/06/11 02:34:19;;;;;;;22.98;3.67;;;15.00;99.90;;;;;;5050089;28;20017;-64
2022/06/11 02:36:59;;;;;;;24.70;4.30;;;15.00;99.90;;;;;;5044824;28;20035;-64
2022/06/11 02:39:27;;;;;;;23.55;4.43;;;14.90;99.90;;;;;;5046672;28;20044;-64
2022/06/11 02:41:53;;;;;;;17.35;3.35;;;15.00;99.90;;;;;;5046419;28;20120;-66
2022/06/11 02:44:19;;;;;;;22.80;3.88;;;14.90;99.90;;;;;;5048524;28;20207;-66
2022/06/11 02:46:45;;;;;;;24.80;4.50;;;14.90;99.90;;;;;;5051529;28;20400;-63
2022/06/11 02:49:20;;;;;;;25.73;4.30;;;15.00;99.90;;;;;;5049079;28;20091;-64
2022/06/11 02:51:48;;;;;;;26.98;5.22;;;14.90;99.90;;;;;;5049481;28;20055;-64
2022/06/11 02:54:15;;;;;;;21.10;3.50;;;14.90;99.90;;;;;;5052953;28;20032;-65
2022/06/11 02:56:42;;;;;;;20.58;4.18;;;14.90;99.90;;;;;;5054374;28;20023;-65
2022/06/11 02:59:07;;;;;;;18.55;3.42;;;14.90;99.90;;;;;;5048113;28;20021;-66
2022/06/11 03:01:35;;;;;;;18.02;3.83;;;14.90;99.90;;;;;;5047699;28;20031;-67
2022/06/11 03:04:01;;;;;;;21.17;3.72;;;14.90;99.90;;;;;;5050413;28;20114;-64
2022/06/11 03:06:27;;;;;;;22.30;3.65;;;14.90;99.90;;;;;;5051482;28;20043;-63
2022/06/11 03:08:55;;;;;;;25.95;4.43;;;14.80;99.90;;;;;;5051976;28;20017;-66
2022/06/11 03:11:20;;;;;;;27.60;4.40;;;14.80;99.90;;;;;;5049085;28;20037;-65
2022/06/11 03:13:46;;;;;;;23.40;4.18;;;14.80;99.90;;;;;;5048493;28;20355;-66
2022/06/11 03:16:12;;;;;;;21.52;3.70;;;14.80;99.90;;;;;;5051012;28;20036;-68
2022/06/11 03:18:38;;;;;;;25.02;4.30;;;14.80;99.90;;;;;;5042346;28;20029;-65
2022/06/11 03:21:05;;;;;;;23.40;4.05;;;14.80;99.90;;;;;;5053760;28;20025;-64
2022/06/11 03:23:30;;;;;;;27.70;4.50;;;14.80;99.90;;;;;;5052292;28;20389;-63
2022/06/11 03:25:57;;;;;;;24.10;5.07;;;14.80;99.90;;;;;;5052488;28;20021;-67
2022/06/11 03:28:25;;;;;;;19.85;3.97;;;14.80;99.90;;;;;;5053784;28;21261;-64
2022/06/11 03:30:52;;;;;;;25.00;5.00;;;14.80;99.90;;;;;;5052195;28;20044;-63
2022/06/11 03:33:18;;;;;;;32.42;5.18;;;14.80;99.90;;;;;;5046928;28;20029;-67
2022/06/11 03:35:46;;;;;;;25.17;5.38;;;14.80;99.90;;;;;;5048937;28;20040;-64
2022/06/11 03:38:12;;;;;;;20.10;4.38;;;14.80;99.90;;;;;;5050047;28;20024;-63
2022/06/11 03:40:38;;;;;;;27.35;5.10;;;14.90;99.90;;;;;;5049453;28;20033;-64
2022/06/11 03:43:04;;;;;;;28.67;5.38;;;14.90;99.90;;;;;;5047693;28;20100;-67
2022/06/11 03:45:32;;;;;;;27.38;5.13;;;14.90;99.90;;;;;;5049461;28;20104;-64
2022/06/11 03:47:57;;;;;;;32.45;6.18;;;14.90;99.90;;;;;;5049819;28;20029;-67
2022/06/11 03:50:28;;;;;;;32.33;4.93;;;14.90;99.90;;;;;;5047141;28;20420;-64
2022/06/11 03:52:55;;;;;;;25.27;5.00;;;15.00;99.90;;;;;;5049467;28;20606;-63
2022/06/11 03:55:23;;;;;;;24.42;4.57;;;15.00;99.90;;;;;;5048418;28;20021;-64
2022/06/11 03:57:49;;;;;;;27.58;5.10;;;15.00;99.90;;;;;;5052004;28;20025;-65
2022/06/11 04:01:14;;;;;;;25.50;4.13;;;15.10;99.90;;;;;;5055407;28;20099;-64
2022/06/11 04:03:04;;;;;;;27.77;4.85;;;15.10;99.90;;;;;;5053434;28;20134;-67
2022/06/11 04:05:30;;;;;;;26.35;4.57;;;15.10;99.90;;;;;;5054810;28;20465;-64
2022/06/11 04:07:55;;;;;;;23.25;4.30;;;15.10;99.90;;;;;;5054053;28;20040;-63
2022/06/11 04:10:21;;;;;;;22.77;4.32;;;15.20;99.90;;;;;;5052323;28;20021;-64
2022/06/11 04:12:47;;;;;;;21.92;5.50;;;15.20;99.90;;;;;;5050224;28;20032;-67
2022/06/11 04:15:13;;;;;;;25.85;4.25;;;15.20;99.90;;;;;;5054575;28;20009;-64
2022/06/11 04:17:39;;;;;;;27.13;5.55;;;15.30;99.90;;;;;;5054614;28;20099;-66
2022/06/11 04:20:05;;;;;;;28.02;5.00;;;15.30;99.90;;;;;;5050711;28;20127;-65
2022/06/11 04:22:30;;;;;;;25.52;5.20;;;15.30;99.90;;;;;;5053899;28;20052;-66
2022/06/11 04:24:56;;;;;;;23.08;4.65;;;15.40;99.90;;;;;;5053250;28;20071;-64
2022/06/11 04:27:23;;;;;;;35.40;5.40;;;15.50;99.90;;;;;;5053180;28;20483;-64
2022/06/11 04:29:53;;;;;;;25.63;5.40;;;15.60;99.90;;;;;;5054114;28;20040;-64
2022/06/11 04:32:19;;;;;;;27.77;6.50;;;15.70;99.90;;;;;;5053409;28;20094;-66
2022/06/11 04:34:47;;;;;;;30.23;6.65;;;15.80;99.90;;;;;;5053647;28;20071;-67
2022/06/11 04:37:14;;;;;;;31.58;5.90;;;15.90;99.90;;;;;;5054143;28;20009;-66
2022/06/11 04:39:45;;;;;;;24.20;5.68;;;15.90;99.90;;;;;;5051883;28;20068;-64
2022/06/11 04:42:11;;;;;;;27.53;5.97;;;16.00;99.90;;;;;;5054091;28;20024;-63
2022/06/11 04:44:39;;;;;;;26.23;5.72;;;16.10;99.90;;;;;;5052107;28;20021;-65
2022/06/11 04:47:06;;;;;;;26.23;5.57;;;16.20;99.90;;;;;;5050432;28;20025;-64
2022/06/11 04:49:32;;;;;;;21.70;4.53;;;16.30;99.90;;;;;;5052997;28;20025;-63
2022/06/11 04:51:58;;;;;;;28.58;6.18;;;16.20;99.90;;;;;;5051548;28;20029;-67
2022/06/11 04:54:25;;;;;;;30.27;5.47;;;16.30;99.90;;;;;;5051500;28;20405;-63
2022/06/11 04:56:50;;;;;;;26.35;6.07;;;16.30;99.90;;;;;;5053403;28;20021;-64
2022/06/11 04:59:16;;;;;;;28.10;5.72;;;16.40;99.90;;;;;;5053130;28;20040;-64
2022/06/11 05:01:42;;;;;;;23.73;6.10;;;16.50;99.90;;;;;;5051846;28;20027;-66
2022/06/11 05:04:10;;;;;;;27.83;5.40;;;16.50;99.90;;;;;;5053412;28;20036;-63
2022/06/11 05:06:39;;;;;;;28.30;6.53;;;16.50;99.90;;;;;;5051946;28;20028;-63
2022/06/11 05:09:06;;;;;;;31.48;6.00;;;16.60;99.90;;;;;;5051554;28;20024;-64
2022/06/11 05:11:32;;;;;;;36.75;5.75;;;16.60;99.90;;;;;;5053182;28;20021;-64
2022/06/11 05:13:57;;;;;;;30.95;5.43;;;16.80;99.90;;;;;;5048963;28;20465;-64
2022/06/11 05:16:23;;;;;;;27.30;5.85;;;16.90;99.90;;;;;;5053321;28;20025;-64
2022/06/11 05:18:50;;;;;;;29.77;6.43;;;16.90;99.90;;;;;;5052413;28;20489;-64
2022/06/11 05:21:15;;;;;;;19.67;4.70;;;17.00;99.90;;;;;;5052391;28;20100;-66
2022/06/11 05:23:41;;;;;;;27.05;5.60;;;17.10;99.90;;;;;;5050311;28;20166;-64
2022/06/11 05:26:08;;;;;;;29.77;4.97;;;17.30;99.90;;;;;;5052761;28;20028;-63
2022/06/11 05:28:35;;;;;;;26.35;5.03;;;17.50;99.90;;;;;;5050587;28;20021;-64
2022/06/11 05:31:01;;;;;;;24.75;6.10;;;17.80;99.90;;;;;;5052943;28;20128;-64
2022/06/11 05:33:27;;;;;;;22.75;4.80;;;18.20;99.90;;;;;;5052748;28;20159;-64
2022/06/11 05:35:54;;;;;;;27.17;4.93;;;18.50;99.90;;;;;;5051960;28;20446;-64
2022/06/11 05:38:23;;;;;;;24.75;4.45;;;18.70;99.90;;;;;;5052478;28;20058;-67
2022/06/11 05:40:51;;;;;;;24.23;5.28;;;19.10;99.90;;;;;;5052980;28;20021;-63
2022/06/11 05:43:17;;;;;;;24.05;5.00;;;19.50;99.90;;;;;;5052256;28;20257;-64
2022/06/11 05:45:50;;;;;;;27.35;4.72;;;19.80;99.90;;;;;;5052874;28;20021;-66
2022/06/11 05:48:18;;;;;;;26.67;4.25;;;20.10;99.90;;;;;;5049714;28;20032;-64
2022/06/11 05:50:51;;;;;;;24.20;4.95;;;20.50;99.90;;;;;;5052213;28;20477;-64
2022/06/11 05:53:20;;;;;;;28.30;5.82;;;20.90;99.90;;;;;;5049996;28;20033;-64
2022/06/11 05:55:48;;;;;;;23.52;5.07;;;20.90;99.90;;;;;;5052210;28;20021;-63
2022/06/11 05:58:17;;;;;;;23.77;4.82;;;20.90;99.90;;;;;;5047994;28;20502;-64
2022/06/11 06:00:43;;;;;;;22.45;3.92;;;21.40;99.90;;;;;;5051769;28;20024;-64
2022/06/11 06:03:09;;;;;;;27.48;4.70;;;22.10;99.90;;;;;;5050853;28;20072;-63
2022/06/11 06:05:35;;;;;;;19.88;3.95;;;22.50;99.90;;;;;;5052223;28;20044;-63
2022/06/11 06:08:02;;;;;;;21.42;4.43;;;22.90;99.90;;;;;;5051743;28;20009;-63
2022/06/11 06:10:28;;;;;;;21.90;4.40;;;23.20;99.90;;;;;;5052189;28;20492;-67
2022/06/11 06:12:53;;;;;;;25.35;4.60;;;23.80;99.90;;;;;;5048611;28;20021;-64
2022/06/11 06:15:23;;;;;;;19.52;3.47;;;24.20;99.90;;;;;;5050938;28;20028;-66
2022/06/11 06:17:50;;;;;;;15.07;3.83;;;24.40;99.90;;;;;;5051416;28;20091;-66
2022/06/11 06:20:17;;;;;;;22.48;4.18;;;24.60;99.90;;;;;;5045409;28;20044;-63
2022/06/11 06:22:44;;;;;;;18.33;3.25;;;24.80;99.40;;;;;;5051524;28;20037;-64
2022/06/11 06:25:17;;;;;;;18.27;4.00;;;25.10;98.80;;;;;;5050535;28;20432;-64
2022/06/11 06:27:43;;;;;;;21.52;4.15;;;25.20;98.70;;;;;;5052042;28;20021;-65
2022/06/11 06:30:09;;;;;;;23.27;4.35;;;25.40;98.50;;;;;;5051179;28;20429;-63
2022/06/11 06:32:35;;;;;;;20.45;3.90;;;25.60;97.90;;;;;;5052220;28;20032;-66
2022/06/11 06:35:01;;;;;;;22.33;4.05;;;25.50;97.50;;;;;;5051950;28;20021;-65
2022/06/11 06:37:26;;;;;;;20.20;3.90;;;25.30;97.90;;;;;;5052418;28;20060;-66
2022/06/11 06:39:52;;;;;;;24.33;4.28;;;25.50;97.40;;;;;;5051756;28;20040;-64
2022/06/11 06:42:18;;;;;;;19.95;3.70;;;25.60;97.40;;;;;;5052021;28;20366;-64
2022/06/11 06:44:44;;;;;;;21.98;4.53;;;25.60;96.70;;;;;;5052345;28;20056;-64
2022/06/11 06:47:09;;;;;;;20.27;4.35;;;25.40;97.00;;;;;;5051875;28;20025;-64
2022/06/11 06:49:35;;;;;;;18.27;4.10;;;25.40;97.00;;;;;;5051646;28;20087;-66
2022/06/11 06:52:01;;;;;;;20.73;3.85;;;25.30;96.80;;;;;;5051618;28;20028;-64
2022/06/11 06:54:26;;;;;;;19.67;3.70;;;25.40;96.70;;;;;;5052385;28;20032;-63
2022/06/11 06:56:52;;;;;;;18.83;4.18;;;25.50;95.90;;;;;;5051941;28;20028;-64
2022/06/11 06:59:18;;;;;;;18.75;3.83;;;25.70;96.10;;;;;;5052377;28;20032;-67
2022/06/11 07:01:44;;;;;;;17.02;3.92;;;26.10;95.70;;;;;;5051735;28;20036;-63
2022/06/11 07:04:11;;;;;;;19.10;3.70;;;26.50;95.30;;;;;;5051406;28;20417;-63
2022/06/11 07:06:37;;;;;;;19.70;4.30;;;26.90;94.50;;;;;;5049134;28;20036;-64
2022/06/11 07:09:03;;;;;;;20.95;3.42;;;27.00;93.90;;;;;;5051678;28;20025;-64
2022/06/11 07:11:29;;;;;;;17.25;3.38;;;27.00;93.20;;;;;;5050647;28;20043;-63
2022/06/11 07:13:55;;;;;;;17.80;3.70;;;26.90;92.60;;;;;;5051717;28;20455;-63
2022/06/11 07:16:27;;;;;;;20.55;3.55;;;27.10;92.90;;;;;;5052344;28;20336;-67
2022/06/11 07:18:57;;;;;;;16.70;3.42;;;27.50;92.20;;;;;;5053909;28;20364;-64
2022/06/11 07:21:29;;;;;;;19.30;3.63;;;27.70;91.50;;;;;;5047823;28;20100;-66
2022/06/11 07:24:01;;;;;;;15.00;3.42;;;28.00;91.60;;;;;;5050369;28;20056;-68
2022/06/11 07:26:34;;;;;;;16.02;4.80;;;28.50;90.60;;;;;;5031512;28;20048;-64
2022/06/11 07:29:14;;;;;;;12.23;2.85;;;28.70;90.20;;;;;;5041486;28;20078;-65
2022/06/11 07:31:42;;;;;;;17.00;3.55;;;28.60;88.10;;;;;;5052551;28;20492;-64
2022/06/11 07:34:07;;;;;;;13.60;3.67;;;28.30;88.80;;;;;;5053856;28;20021;-64
2022/06/11 07:36:34;;;;;;;18.77;4.00;;;28.40;88.40;;;;;;5055608;28;20098;-63
2022/06/11 07:38:59;;;;;;;17.20;2.65;;;28.20;89.40;;;;;;5054875;28;20343;-64
2022/06/11 07:41:25;;;;;;;19.20;4.00;;;28.10;88.90;;;;;;5053850;28;20082;-67
2022/06/11 07:43:51;;;;;;;19.50;3.65;;;28.20;89.90;;;;;;5053995;28;20036;-67
2022/06/11 07:46:16;;;;;;;15.48;3.22;;;28.10;88.70;;;;;;5055463;28;20033;-63
2022/06/11 07:48:42;;;;;;;18.13;3.42;;;27.90;86.50;;;;;;5054965;28;20025;-66
2022/06/11 07:51:08;;;;;;;15.32;3.63;;;27.60;87.50;;;;;;5055225;28;20111;-64
2022/06/11 07:53:34;;;;;;;15.35;3.53;;;27.30;88.40;;;;;;5054757;28;20055;-64
2022/06/11 07:56:00;;;;;;;16.52;3.50;;;27.10;88.00;;;;;;5054676;28;20028;-64
2022/06/11 07:58:28;;;;;;;15.18;4.10;;;26.90;89.60;;;;;;5054108;28;20512;-64
2022/06/11 08:00:54;;;;;;;18.73;2.95;;;26.40;90.00;;;;;;5053996;28;20029;-64
2022/06/11 08:03:21;;;;;;;22.35;3.97;;;25.90;90.90;;;;;;5053442;28;20436;-63
2022/06/11 08:05:47;;;;;;;20.67;3.47;;;25.70;91.20;;;;;;5054554;28;20136;-64
2022/06/11 08:08:14;;;;;;;16.80;3.80;;;25.40;91.20;;;;;;5054137;28;20498;-64
2022/06/11 08:10:41;;;;;;;17.33;3.03;;;25.30;91.60;;;;;;5054739;28;20458;-63
2022/06/11 08:13:08;;;;;;;18.60;3.60;;;25.40;91.60;;;;;;5054610;28;20476;-64
2022/06/11 08:15:35;;;;;;;16.88;3.55;;;25.50;91.70;;;;;;5054417;28;20071;-67
2022/06/11 08:18:01;;;;;;;17.83;3.20;;;25.70;91.60;;;;;;5054422;28;20025;-67
2022/06/11 08:20:30;;;;;;;21.08;3.85;;;26.10;91.50;;;;;;5053014;28;20091;-64
2022/06/11 08:22:56;;;;;;;16.25;3.40;;;26.80;91.10;;;;;;5035976;28;20049;-66
2022/06/11 08:25:22;;;;;;;14.15;3.13;;;27.60;90.10;;;;;;5037499;28;20037;-66
2022/06/11 08:27:48;;;;;;;15.65;3.05;;;28.10;89.20;;;;;;5054207;28;20465;-63
2022/06/11 08:30:16;;;;;;;15.82;3.20;;;28.40;86.90;;;;;;5051812;28;20048;-65
2022/06/11 08:32:41;;;;;;;16.27;3.47;;;28.90;86.00;;;;;;5046313;28;20037;-65
2022/06/11 08:35:08;;;;;;;14.50;3.90;;;29.60;84.10;;;;;;5053889;28;20040;-63
2022/06/11 08:37:34;;;;;;;13.60;2.78;;;30.10;82.40;;;;;;5053682;28;20044;-66
2022/06/11 08:39:59;;;;;;;13.23;2.60;;;30.50;81.20;;;;;;5053031;28;20025;-64
2022/06/11 08:42:51;;;;;;;12.85;3.08;;;30.90;80.20;;;;;;5053824;28;20076;-64
2022/06/11 08:45:21;;;;;;;13.77;3.42;;;31.10;79.10;;;;;;5019663;28;20037;-64
2022/06/11 08:47:57;;;;;;;15.35;3.88;;;31.40;78.40;;;;;;5044169;28;20366;-66
2022/06/11 08:50:40;;;;;;;14.55;3.42;;;31.70;76.90;;;;;;5046804;28;20036;-63
2022/06/11 08:53:06;;;;;;;16.38;3.20;;;32.10;75.70;;;;;;5053679;28;20013;-67
2022/06/11 08:55:37;;;;;;;13.50;3.17;;;32.40;75.20;;;;;;5064985;28;20024;-65
2022/06/11 08:58:31;;;;;;;16.65;3.13;;;32.60;74.50;;;;;;5046439;28;20032;-68
2022/06/11 09:01:29;;;;;;;13.35;2.60;;;32.80;73.40;;;;;;5053368;28;20035;-67
2022/06/11 09:04:39;;;;;;;14.88;3.45;;;33.20;72.40;;;;;;5052491;28;20040;-65
2022/06/11 09:07:32;;;;;;;15.88;3.13;;;33.50;71.90;;;;;;5023376;28;20052;-65
2022/06/11 09:10:09;;;;;;;15.13;3.58;;;33.20;70.90;;;;;;5021356;28;20119;-66
2022/06/11 09:12:57;;;;;;;17.73;3.38;;;33.00;72.00;;;;;;5052707;28;20028;-64
2022/06/11 09:15:44;;;;;;;16.35;3.58;;;33.10;70.70;;;;;;5053601;28;20017;-65
2022/06/11 09:18:50;;;;;;;15.65;2.83;;;33.10;70.90;;;;;;5051846;28;20032;-65
2022/06/11 09:21:54;;;;;;;15.25;3.13;;;33.20;70.00;;;;;;5053153;28;20017;-64
2022/06/11 09:24:28;;;;;;;19.55;3.20;;;33.00;70.00;;;;;;5010545;28;20049;-65
2022/06/11 09:27:02;;;;;;;20.33;3.50;;;32.90;70.40;;;;;;5043958;28;20080;-66
2022/06/11 09:29:35;;;;;;;15.50;3.10;;;33.10;70.30;;;;;;5053192;28;20361;-65
2022/06/11 09:32:14;;;;;;;12.65;2.75;;;33.40;69.40;;;;;;5052863;28;20182;-65
2022/06/11 09:34:51;;;;;;;12.88;3.22;;;33.30;68.10;;;;;;5053221;28;20462;-65
2022/06/11 09:37:33;;;;;;;15.15;3.25;;;33.20;69.90;;;;;;5053128;28;20032;-64
2022/06/11 09:40:25;;;;;;;14.02;3.05;;;33.10;70.00;;;;;;5033665;28;20105;-68
2022/06/11 09:43:18;;;;;;;16.88;3.15;;;32.70;70.80;;;;;;5043928;28;20029;-65
2022/06/11 09:45:46;;;;;;;13.45;2.90;;;32.80;70.50;;;;;;5052424;28;20029;-64
2022/06/11 09:48:15;;;;;;;16.88;3.38;;;33.00;70.40;;;;;;5053205;28;20024;-65
2022/06/11 09:50:49;;;;;;;12.32;2.97;;;33.40;70.00;;;;;;5051601;28;20099;-66
2022/06/11 09:53:41;;;;;;;14.93;3.03;;;33.90;69.10;;;;;;5051979;28;20142;-64
2022/06/11 09:56:28;;;;;;;13.45;3.20;;;33.90;68.00;;;;;;5052952;28;20104;-67
2022/06/11 09:59:17;;;;;;;16.63;3.88;;;33.70;67.90;;;;;;5053138;28;20036;-64
2022/06/11 10:02:23;;;;;;;14.38;3.53;;;34.00;67.50;;;;;;5053058;28;20017;-68
2022/06/11 10:04:50;;;;;;;14.02;2.95;;;34.00;67.60;;;;;;5050966;28;20140;-65
2022/06/11 10:07:45;;;;;;;13.68;3.38;;;34.30;66.40;;;;;;5053248;28;20108;-65
2022/06/11 10:10:16;;;;;;;12.57;2.97;;;34.60;65.60;;;;;;5052549;28;20112;-64
2022/06/11 10:13:14;;;;;;;15.82;3.88;;;35.00;64.80;;;;;;5052782;28;20040;-66
2022/06/11 10:15:48;;;;;;;16.27;3.00;;;35.20;62.80;;;;;;5052077;28;20493;-65
2022/06/11 10:18:28;;;;;;;14.82;3.30;;;34.60;63.30;;;;;;5052936;28;20159;-63
2022/06/11 10:20:58;;;;;;;14.48;3.00;;;34.20;63.40;;;;;;5052714;28;20029;-64
2022/06/11 10:23:29;;;;;;;16.95;3.45;;;34.10;64.00;;;;;;5047804;28;20118;-65
2022/06/11 10:26:22;;;;;;;17.75;3.47;;;34.00;64.40;;;;;;5034911;28;20021;-65
2022/06/11 10:29:00;;;;;;;19.67;3.88;;;34.10;64.50;;;;;;5032811;28;20021;-65
2022/06/11 10:31:31;;;;;;;16.83;3.45;;;34.00;65.10;;;;;;5042150;28;20431;-64
2022/06/11 10:34:04;;;;;;;15.18;3.05;;;34.50;64.80;;;;;;5052037;28;20124;-64
2022/06/11 10:36:47;;;;;;;15.75;3.10;;;34.70;64.50;;;;;;5052474;28;20067;-64
2022/06/11 10:39:24;;;;;;;13.40;2.90;;;34.40;64.70;;;;;;5052405;28;20074;-66
2022/06/11 10:41:59;;;;;;;12.90;2.97;;;34.50;63.30;;;;;;5052280;28;20451;-65
2022/06/11 10:44:39;;;;;;;15.25;3.50;;;34.60;62.80;;;;;;5051165;28;20203;-65
2022/06/11 10:47:20;;;;;;;16.25;3.35;;;35.00;63.00;;;;;;5050074;28;20024;-66
2022/06/11 10:49:50;;;;;;;16.05;2.67;;;35.10;62.50;;;;;;5031355;28;20033;-65
2022/06/11 10:52:34;;;;;;;20.38;4.00;;;35.30;61.50;;;;;;5045980;28;20541;-64
2022/06/11 10:55:00;;;;;;;16.08;3.95;;;35.40;62.80;;;;;;5050581;28;20025;-64
2022/06/11 10:57:29;;;;;;;13.77;3.08;;;35.50;62.20;;;;;;5050473;28;20074;-65
2022/06/11 11:00:13;;;;;;;16.42;3.00;;;35.90;60.80;;;;;;5050007;28;20028;-64
2022/06/11 11:02:50;;;;;;;14.65;3.83;;;36.20;60.70;;;;;;5050993;28;20079;-65
2022/06/11 11:05:18;;;;;;;17.55;3.20;;;36.00;61.70;;;;;;5039020;28;20374;-64
2022/06/11 11:07:59;;;;;;;14.18;3.50;;;35.90;61.30;;;;;;5055536;28;20027;-64
2022/06/11 11:10:36;;;;;;;18.53;3.47;;;36.00;61.00;;;;;;5055291;28;20020;-64
2022/06/11 11:13:23;;;;;;;13.05;2.83;;;36.30;60.70;;;;;;5056318;28;20025;-65
2022/06/11 11:16:12;;;;;;;16.80;3.40;;;36.50;60.00;;;;;;5056204;28;20067;-64
2022/06/11 11:18:44;;;;;;;15.65;3.15;;;36.70;58.90;;;;;;5056321;28;20025;-66
2022/06/11 11:21:18;;;;;;;15.10;3.42;;;36.80;59.30;;;;;;5055812;28;20021;-65
2022/06/11 11:23:45;;;;;;;14.60;3.42;;;36.70;59.80;;;;;;5055005;28;20043;-65
2022/06/11 11:26:33;;;;;;;17.83;3.25;;;36.50;59.60;;;;;;5055919;28;20021;-65
2022/06/11 11:29:14;;;;;;;17.30;3.35;;;36.10;60.30;;;;;;5056162;28;20083;-64
2022/06/11 11:31:44;;;;;;;16.83;3.42;;;36.00;60.60;;;;;;5055713;28;20124;-65
2022/06/11 11:34:22;;;;;;;15.43;3.25;;;35.60;61.80;;;;;;5056120;28;20028;-65
2022/06/11 11:36:48;;;;;;;17.10;3.30;;;35.10;62.60;;;;;;5054265;28;20032;-66
2022/06/11 11:39:15;;;;;;;17.23;3.15;;;35.00;62.10;;;;;;5035637;28;20022;-65
2022/06/11 11:42:08;;;;;;;16.00;3.40;;;34.70;62.90;;;;;;5035835;28;20022;-64
2022/06/11 11:44:49;;;;;;;16.30;3.30;;;34.80;62.90;;;;;;5051363;28;20028;-65
2022/06/11 11:47:17;;;;;;;19.00;3.65;;;34.80;63.50;;;;;;5057567;28;20017;-67
2022/06/11 11:49:51;;;;;;;17.67;3.20;;;34.60;63.60;;;;;;5055555;28;20021;-64
2022/06/11 11:52:21;;;;;;;16.38;3.50;;;34.60;64.40;;;;;;5055524;28;20106;-65
2022/06/11 11:54:57;;;;;;;18.80;3.42;;;34.70;63.00;;;;;;5055395;28;20120;-64
2022/06/11 11:57:27;;;;;;;16.05;3.15;;;34.70;62.90;;;;;;5055419;28;20021;-65
2022/06/11 11:59:58;;;;;;;17.95;3.40;;;34.40;64.10;;;;;;5058295;28;20032;-65
2022/06/11 12:02:26;;;;;;;10.55;2.30;;;34.40;63.30;;;;;;5054714;28;20485;-66
2022/06/11 12:05:10;;;;;;;17.45;4.00;;;34.40;63.10;;;;;;5054637;28;20021;-64
2022/06/11 12:07:40;;;;;;;19.10;3.53;;;33.60;63.90;;;;;;5054361;28;20104;-65
2022/06/11 12:10:25;;;;;;;16.27;3.72;;;33.30;64.80;;;;;;5054980;28;20031;-65
2022/06/11 12:12:54;;;;;;;18.60;4.03;;;32.80;65.70;;;;;;5053310;28;20032;-65
2022/06/11 12:15:21;;;;;;;15.93;3.35;;;32.80;65.80;;;;;;5054392;28;20103;-65
2022/06/11 12:18:05;;;;;;;19.38;3.13;;;32.50;65.60;;;;;;5053841;28;20109;-65
2022/06/11 12:20:52;;;;;;;14.55;2.97;;;32.10;66.90;;;;;;5054721;28;20029;-65
2022/06/11 12:23:35;;;;;;;21.15;3.92;;;31.70;66.50;;;;;;5052161;28;20075;-69
2022/06/11 12:26:07;;;;;;;17.35;3.55;;;31.50;67.10;;;;;;5052078;28;20128;-64
2022/06/11 12:28:42;;;;;;;16.15;3.38;;;31.70;67.50;;;;;;5057985;28;20029;-66
2022/06/11 12:31:16;;;;;;;18.48;3.58;;;31.80;67.20;;;;;;5045533;28;20051;-68
2022/06/11 12:33:45;;;;;;;19.83;3.70;;;31.70;67.30;;;;;;5062691;28;20036;-68
2022/06/11 12:36:21;;;;;;;15.60;3.22;;;31.10;68.40;;;;;;5050481;28;20047;-66
2022/06/11 12:38:58;;;;;;;16.65;3.03;;;31.00;67.30;;;;;;5052647;28;20543;-65
2022/06/11 12:41:53;;;;;;;17.83;3.45;;;30.80;69.10;;;;;;5050550;28;20033;-65
2022/06/11 12:44:43;;;;;;;17.75;3.42;;;30.40;68.80;;;;;;5046899;28;20075;-65
2022/06/11 12:47:30;;;;;;;15.95;2.97;;;29.80;70.10;;;;;;5052177;28;20013;-67
2022/06/11 12:50:41;;;;;;;18.67;3.03;;;29.40;70.70;;;;;;5049400;28;20037;-64
2022/06/11 12:53:25;;;;;;;20.60;3.17;;;29.00;71.90;;;;;;5052344;28;20043;-68
2022/06/11 12:56:25;;;;;;;19.65;3.92;;;28.60;72.70;;;;;;5049760;28;20463;-65
2022/06/11 12:59:16;;;;;;;19.52;3.58;;;28.40;74.00;;;;;;5074373;28;20036;-64
2022/06/11 13:01:45;;;;;;;18.27;3.58;;;28.40;74.20;;;;;;5051202;28;20147;-64
2022/06/11 13:04:42;;;;;;;17.60;3.30;;;28.30;73.30;;;;;;5050260;28;20040;-65